Time,TemperatureF,DewpointF,PressureIn,WindDirection,WindDirectionDegrees,WindSpeedMPH,WindSpeedGustMPH,Humidity,HourlyPrecipIn,Conditions,Clouds,dailyrainin,SoftwareType,DateUTC
2013-10-19 00:01:00,54.7,54.7,30.03,South,183,0.0,0.0,100,0.00,,,0.00,VWS V13.01,2013-10-19 05:01:00,
2013-10-19 00:06:00,54.7,54.7,30.03,WSW,250,0.0,0.0,100,0.00,,,0.00,VWS V13.01,2013-10-19 05:06:00,
2013-10-19 00:11:00,54.7,54.7,30.03,WSW,241,2.7,2.7,100,0.00,,,0.00,VWS V13.01,2013-10-19 05:11:00,
2013-10-19 00:16:00,54.5,54.5,30.03,WSW,241,0.0,2.7,100,0.00,,,0.00,VWS V13.01,2013-10-19 05:16:00,
2013-10-19 00:21:00,54.5,54.5,30.03,West,260,0.0,0.0,100,0.00,,,0.00,VWS V13.01,2013-10-19 05:21:00,
2013-10-19 00:26:00,54.7,54.7,30.03,WSW,257,2.2,2.2,100,0.00,,,0.00,VWS V13.01,2013-10-19 05:26:00,
2013-10-19 00:31:00,54.7,54.7,30.03,WSW,245,0.0,0.0,100,0.00,,,0.00,VWS V13.01,2013-10-19 05:31:00,
2013-10-19 00:36:00,54.5,54.5,30.03,WSW,247,0.0,0.0,100,0.00,,,0.00,VWS V13.01,2013-10-19 05:36:00,
2013-10-19 00:41:00,54.5,54.5,30.03,SW,227,3.6,3.6,100,0.00,,,0.00,VWS V13.01,2013-10-19 05:41:00,
2013-10-19 00:46:00,54.5,54.5,30.03,SSW,207,2.2,2.7,100,0.00,,,0.00,VWS V13.01,2013-10-19 05:46:00,
2013-10-19 00:51:00,54.7,54.7,30.03,WSW,256,6.3,6.3,100,0.00,,,0.00,VWS V13.01,2013-10-19 05:51:00,
2013-10-19 00:56:00,54.7,54.7,30.03,WSW,250,4.0,4.0,100,0.00,,,0.00,VWS V13.01,2013-10-19 05:56:00,
2013-10-19 01:01:00,54.9,54.9,30.03,WSW,253,6.3,7.6,100,0.00,,,0.00,VWS V13.01,2013-10-19 06:01:00,
2013-10-19 01:06:00,54.9,54.9,30.03,SW,231,3.1,3.6,100,0.00,,,0.00,VWS V13.01,2013-10-19 06:06:00,
2013-10-19 01:11:00,54.9,54.9,30.03,WSW,253,3.1,4.9,100,0.00,,,0.00,VWS V13.01,2013-10-19 06:11:00,
2013-10-19 01:16:00,54.7,54.7,30.03,WSW,243,4.0,4.0,100,0.00,,,0.00,VWS V13.01,2013-10-19 06:16:00,
2013-10-19 01:21:00,54.5,54.5,30.03,West,261,4.0,5.8,100,0.00,,,0.00,VWS V13.01,2013-10-19 06:21:00,
2013-10-19 01:26:00,54.4,54.4,30.03,WSW,247,5.4,6.3,100,0.00,,,0.00,VWS V13.01,2013-10-19 06:26:00,
2013-10-19 01:31:00,54.4,54.4,30.03,WSW,244,3.1,3.1,100,0.04,,,0.04,VWS V13.01,2013-10-19 06:31:00,
2013-10-19 01:36:00,54.2,54.2,30.03,WSW,240,3.6,4.0,100,0.04,,,0.04,VWS V13.01,2013-10-19 06:36:00,
2013-10-19 01:41:00,54.2,54.2,30.03,SW,229,5.4,5.4,100,0.04,,,0.04,VWS V13.01,2013-10-19 06:41:00,
2013-10-19 01:45:00,54.2,54.2,30.03,WSW,257,4.9,4.9,100,0.04,,,0.04,VWS V13.01,2013-10-19 06:45:00,
2013-10-19 01:50:00,54.0,54.0,30.03,WSW,255,3.6,4.0,100,0.04,,,0.04,VWS V13.01,2013-10-19 06:50:00,
2013-10-19 01:55:00,54.0,54.0,30.03,WSW,246,4.9,4.9,100,0.04,,,0.04,VWS V13.01,2013-10-19 06:55:00,
2013-10-19 02:00:00,54.0,54.0,30.03,WSW,237,5.4,6.7,100,0.04,,,0.00,VWS V13.01,2013-10-19 07:00:00,
2013-10-19 02:05:00,54.0,54.0,30.03,SW,233,4.9,5.4,100,0.08,,,0.08,VWS V13.01,2013-10-19 07:05:00,
2013-10-19 02:10:00,53.8,53.8,30.03,WSW,254,4.0,5.8,100,0.08,,,0.08,VWS V13.01,2013-10-19 07:10:00,
2013-10-19 02:15:00,53.6,53.6,30.03,WSW,247,4.0,5.8,100,0.08,,,0.08,VWS V13.01,2013-10-19 07:15:00,
2013-10-19 02:20:00,53.5,53.5,30.03,WSW,241,4.0,4.0,100,0.08,,,0.08,VWS V13.01,2013-10-19 07:20:00,
2013-10-19 02:25:00,53.5,53.5,30.03,West,280,6.3,6.7,100,0.08,,,0.08,VWS V13.01,2013-10-19 07:25:00,
2013-10-19 02:30:00,53.3,53.3,30.03,WSW,253,5.4,5.8,100,0.04,,,0.08,VWS V13.01,2013-10-19 07:30:00,
2013-10-19 02:35:00,53.1,53.1,30.03,West,271,7.2,7.2,100,0.04,,,0.08,VWS V13.01,2013-10-19 07:35:00,
2013-10-19 02:40:00,52.9,52.9,30.03,West,281,4.0,5.4,100,0.04,,,0.08,VWS V13.01,2013-10-19 07:40:00,
2013-10-19 02:45:00,52.4,51.8,30.06,West,276,3.1,4.0,98,0.04,,,0.08,VWS V13.01,2013-10-19 07:45:00,
2013-10-19 02:50:00,52.0,50.3,30.06,WNW,303,3.1,6.7,94,0.04,,,0.08,VWS V13.01,2013-10-19 07:50:00,
2013-10-19 02:55:00,51.7,50.0,30.06,WNW,302,8.3,8.3,94,0.04,,,0.08,VWS V13.01,2013-10-19 07:55:00,
2013-10-19 03:00:00,51.5,48.0,30.06,West,262,3.6,4.9,88,0.04,,,0.08,VWS V13.01,2013-10-19 08:00:00,
2013-10-19 03:05:00,51.1,47.7,30.06,West,270,2.7,4.0,88,0.04,,,0.08,VWS V13.01,2013-10-19 08:05:00,
2013-10-19 03:10:00,50.9,47.5,30.06,West,265,2.7,3.6,88,0.00,,,0.08,VWS V13.01,2013-10-19 08:10:00,
2013-10-19 03:15:00,50.8,47.9,30.06,West,279,2.7,4.5,90,0.00,,,0.08,VWS V13.01,2013-10-19 08:15:00,
2013-10-19 03:20:00,50.6,48.3,30.06,West,274,2.7,2.7,92,0.00,,,0.08,VWS V13.01,2013-10-19 08:20:00,
2013-10-19 03:25:00,50.4,48.7,30.06,WSW,256,0.0,2.2,94,0.00,,,0.08,VWS V13.01,2013-10-19 08:25:00,
2013-10-19 03:30:00,50.2,48.6,30.06,WSW,250,2.7,3.1,94,0.00,,,0.08,VWS V13.01,2013-10-19 08:30:00,
2013-10-19 03:35:00,50.2,48.8,30.06,WSW,249,0.0,4.0,95,0.00,,,0.08,VWS V13.01,2013-10-19 08:35:00,
2013-10-19 03:40:00,50.0,48.7,30.06,West,275,2.7,2.7,95,0.00,,,0.08,VWS V13.01,2013-10-19 08:40:00,
2013-10-19 03:45:00,50.0,48.7,30.06,WSW,242,0.0,0.0,95,0.00,,,0.08,VWS V13.01,2013-10-19 08:45:00,
2013-10-19 03:50:00,49.9,48.5,30.06,West,262,3.6,3.6,95,0.00,,,0.08,VWS V13.01,2013-10-19 08:50:00,
2013-10-19 03:55:00,49.7,48.0,30.06,WNW,283,2.2,2.7,94,0.00,,,0.08,VWS V13.01,2013-10-19 08:55:00,
2013-10-19 04:00:00,49.5,47.6,30.06,West,264,0.0,2.7,93,0.00,,,0.08,VWS V13.01,2013-10-19 09:00:00,
2013-10-19 04:05:00,49.3,46.8,30.06,West,275,3.1,3.6,91,0.00,,,0.08,VWS V13.01,2013-10-19 09:05:00,
2013-10-19 04:10:00,49.3,46.8,30.06,WNW,287,3.1,3.1,91,0.00,,,0.08,VWS V13.01,2013-10-19 09:10:00,
2013-10-19 04:15:00,49.1,46.3,30.09,WNW,283,0.0,4.9,90,0.00,,,0.08,VWS V13.01,2013-10-19 09:15:00,
2013-10-19 04:20:00,48.8,45.4,30.09,NW,309,3.1,3.1,88,0.00,,,0.08,VWS V13.01,2013-10-19 09:20:00,
2013-10-19 04:25:00,48.6,45.2,30.09,WSW,254,3.1,4.0,88,0.00,,,0.08,VWS V13.01,2013-10-19 09:25:00,
2013-10-19 04:30:00,48.4,45.0,30.09,WSW,253,3.6,3.6,88,0.00,,,0.08,VWS V13.01,2013-10-19 09:30:00,
2013-10-19 04:35:00,48.2,44.9,30.09,WSW,239,3.1,3.6,88,0.00,,,0.08,VWS V13.01,2013-10-19 09:35:00,
2013-10-19 04:40:00,48.2,45.5,30.09,West,280,0.0,2.2,90,0.00,,,0.08,VWS V13.01,2013-10-19 09:40:00,
2013-10-19 04:45:00,48.1,45.6,30.09,WNW,290,0.0,0.0,91,0.00,,,0.08,VWS V13.01,2013-10-19 09:45:00,
2013-10-19 04:50:00,47.7,45.5,30.09,WSW,253,0.0,0.0,92,0.00,,,0.08,VWS V13.01,2013-10-19 09:50:00,
2013-10-19 04:55:00,47.5,45.6,30.09,WSW,244,4.0,4.0,93,0.00,,,0.08,VWS V13.01,2013-10-19 09:55:00,
2013-10-19 05:00:00,47.5,46.4,30.09,WSW,250,4.0,4.5,96,0.00,,,0.08,VWS V13.01,2013-10-19 10:00:00,
2013-10-19 05:05:00,47.5,46.4,30.09,West,263,3.1,4.0,96,0.00,,,0.08,VWS V13.01,2013-10-19 10:05:00,
2013-10-19 05:10:00,47.7,46.1,30.09,WSW,249,2.7,3.6,94,0.00,,,0.08,VWS V13.01,2013-10-19 10:10:00,
2013-10-19 05:15:00,47.5,44.5,30.09,West,279,2.7,4.9,89,0.00,,,0.08,VWS V13.01,2013-10-19 10:15:00,
2013-10-19 05:20:00,47.7,42.8,30.09,West,260,0.0,4.9,83,0.00,,,0.08,VWS V13.01,2013-10-19 10:20:00,
2013-10-19 05:25:00,47.7,42.2,30.09,West,262,3.6,4.0,81,0.00,,,0.08,VWS V13.01,2013-10-19 10:25:00,
2013-10-19 05:30:00,47.7,42.8,30.09,West,274,5.4,5.8,83,0.00,,,0.08,VWS V13.01,2013-10-19 10:30:00,
2013-10-19 05:35:00,47.7,42.2,30.09,West,267,3.1,3.1,81,0.00,,,0.08,VWS V13.01,2013-10-19 10:35:00,
2013-10-19 05:40:00,47.7,42.2,30.09,West,273,0.0,4.9,81,0.00,,,0.08,VWS V13.01,2013-10-19 10:40:00,
2013-10-19 05:45:00,47.5,42.3,30.09,West,281,3.1,4.0,82,0.00,,,0.08,VWS V13.01,2013-10-19 10:45:00,
2013-10-19 05:50:00,47.3,41.8,30.09,West,274,5.4,5.4,81,0.00,,,0.08,VWS V13.01,2013-10-19 10:50:00,
2013-10-19 05:55:00,47.3,42.5,30.09,West,262,2.7,3.6,83,0.00,,,0.08,VWS V13.01,2013-10-19 10:55:00,
2013-10-19 06:00:00,47.2,42.0,30.09,West,262,3.6,4.9,82,0.00,,,0.08,VWS V13.01,2013-10-19 11:00:00,
2013-10-19 06:05:00,47.2,42.0,30.09,West,269,5.4,5.4,82,0.00,,,0.08,VWS V13.01,2013-10-19 11:05:00,
2013-10-19 06:10:00,47.0,42.1,30.09,WNW,299,2.7,4.9,83,0.00,,,0.08,VWS V13.01,2013-10-19 11:10:00,
2013-10-19 06:15:00,47.0,41.5,30.11,West,265,3.1,4.0,81,0.00,,,0.08,VWS V13.01,2013-10-19 11:15:00,
2013-10-19 06:20:00,46.6,40.5,30.11,West,278,7.6,8.3,79,0.00,,,0.08,VWS V13.01,2013-10-19 11:20:00,
2013-10-19 06:25:00,46.4,40.0,30.11,WNW,302,5.4,6.3,78,0.00,,,0.08,VWS V13.01,2013-10-19 11:25:00,
2013-10-19 06:30:00,46.4,40.3,30.11,SW,232,2.7,3.1,79,0.00,,,0.08,VWS V13.01,2013-10-19 11:30:00,
2013-10-19 06:35:00,46.3,40.1,30.11,West,269,3.1,4.0,79,0.00,,,0.08,VWS V13.01,2013-10-19 11:35:00,
2013-10-19 06:40:00,46.1,39.9,30.11,West,264,5.4,5.4,79,0.00,,,0.08,VWS V13.01,2013-10-19 11:40:00,
2013-10-19 06:45:00,46.1,39.9,30.11,WSW,252,2.7,4.0,79,0.00,,,0.08,VWS V13.01,2013-10-19 11:45:00,
2013-10-19 06:50:00,45.9,39.8,30.11,WSW,244,3.1,5.4,79,0.00,,,0.08,VWS V13.01,2013-10-19 11:50:00,
2013-10-19 06:55:00,45.9,40.1,30.11,WSW,248,4.9,6.3,80,0.00,,,0.08,VWS V13.01,2013-10-19 11:55:00,
2013-10-19 07:00:00,45.7,39.6,30.11,West,278,7.6,8.1,79,0.00,,,0.08,VWS V13.01,2013-10-19 12:00:00,
2013-10-19 07:05:00,45.7,39.3,30.11,WSW,251,3.6,5.8,78,0.00,,,0.08,VWS V13.01,2013-10-19 12:05:00,
2013-10-19 07:10:00,45.7,39.6,30.11,West,263,2.7,4.0,79,0.00,,,0.08,VWS V13.01,2013-10-19 12:10:00,
2013-10-19 07:15:00,45.5,39.1,30.11,WSW,243,3.6,3.6,78,0.00,,,0.08,VWS V13.01,2013-10-19 12:15:00,
2013-10-19 07:20:00,45.4,38.6,30.11,WNW,288,3.1,4.0,77,0.00,,,0.08,VWS V13.01,2013-10-19 12:20:00,
2013-10-19 07:25:00,45.4,38.9,30.11,West,266,2.7,2.7,78,0.00,,,0.08,VWS V13.01,2013-10-19 12:25:00,
2013-10-19 07:30:00,45.0,38.6,30.14,WSW,255,2.7,3.1,78,0.00,,,0.08,VWS V13.01,2013-10-19 12:30:00,
2013-10-19 07:35:00,44.8,38.4,30.14,WNW,299,2.7,3.6,78,0.00,,,0.08,VWS V13.01,2013-10-19 12:35:00,
2013-10-19 07:40:00,44.6,37.9,30.14,West,275,4.0,4.0,77,0.00,,,0.08,VWS V13.01,2013-10-19 12:40:00,
2013-10-19 07:45:00,44.6,38.2,30.14,West,266,2.7,2.7,78,0.00,,,0.08,VWS V13.01,2013-10-19 12:45:00,
2013-10-19 07:50:00,44.6,38.2,30.14,West,265,3.6,3.6,78,0.00,,,0.08,VWS V13.01,2013-10-19 12:50:00,
2013-10-19 07:55:00,44.6,38.2,30.14,West,262,3.1,3.1,78,0.00,,,0.08,VWS V13.01,2013-10-19 12:55:00,
2013-10-19 08:00:00,44.6,38.2,30.14,West,273,5.4,5.4,78,0.00,,,0.08,VWS V13.01,2013-10-19 13:00:00,
2013-10-19 08:05:00,44.8,38.4,30.14,WSW,247,3.6,3.6,78,0.00,,,0.08,VWS V13.01,2013-10-19 13:05:00,
2013-10-19 08:10:00,44.8,37.7,30.14,West,272,4.0,4.0,76,0.00,,,0.08,VWS V13.01,2013-10-19 13:10:00,
2013-10-19 08:15:00,45.0,37.9,30.14,West,263,4.9,5.8,76,0.00,,,0.08,VWS V13.01,2013-10-19 13:15:00,
2013-10-19 08:20:00,45.4,38.2,30.14,West,259,2.7,3.6,76,0.00,,,0.08,VWS V13.01,2013-10-19 13:20:00,
2013-10-19 08:25:00,45.4,38.2,30.14,WSW,250,4.0,4.0,76,0.00,,,0.08,VWS V13.01,2013-10-19 13:25:00,
2013-10-19 08:30:00,45.4,38.2,30.14,West,274,4.9,4.9,76,0.00,,,0.08,VWS V13.01,2013-10-19 13:30:00,
2013-10-19 08:35:00,45.5,38.1,30.14,SW,231,4.9,4.9,75,0.00,,,0.08,VWS V13.01,2013-10-19 13:35:00,
2013-10-19 08:40:00,45.7,38.6,30.14,WSW,249,4.0,4.0,76,0.00,,,0.08,VWS V13.01,2013-10-19 13:40:00,
2013-10-19 08:45:00,45.9,38.4,30.14,WSW,243,6.3,6.3,75,0.00,,,0.08,VWS V13.01,2013-10-19 13:45:00,
2013-10-19 08:50:00,45.9,37.8,30.14,WSW,245,4.9,6.3,73,0.00,,,0.08,VWS V13.01,2013-10-19 13:50:00,
2013-10-19 08:55:00,46.1,38.3,30.14,WSW,242,5.8,5.8,74,0.00,,,0.08,VWS V13.01,2013-10-19 13:55:00,
2013-10-19 09:00:00,46.3,38.1,30.17,WSW,238,5.8,5.8,73,0.00,,,0.08,VWS V13.01,2013-10-19 14:00:00,
2013-10-19 09:05:00,46.3,37.7,30.17,WSW,242,6.3,8.3,72,0.00,,,0.08,VWS V13.01,2013-10-19 14:05:00,
2013-10-19 09:10:00,46.4,37.6,30.17,West,268,3.6,6.3,71,0.00,,,0.08,VWS V13.01,2013-10-19 14:10:00,
2013-10-19 09:15:00,46.6,38.1,30.17,SW,235,4.0,6.3,72,0.00,,,0.08,VWS V13.01,2013-10-19 14:15:00,
2013-10-19 09:20:00,46.8,38.3,30.17,WSW,250,5.8,5.8,72,0.00,,,0.08,VWS V13.01,2013-10-19 14:20:00,
2013-10-19 09:25:00,46.8,37.9,30.17,SW,228,6.3,8.7,71,0.00,,,0.08,VWS V13.01,2013-10-19 14:25:00,
2013-10-19 09:30:00,46.8,37.5,30.17,SW,233,5.4,6.3,70,0.00,,,0.08,VWS V13.01,2013-10-19 14:30:00,
2013-10-19 09:35:00,46.8,36.8,30.17,WSW,256,6.3,6.3,68,0.00,,,0.08,VWS V13.01,2013-10-19 14:35:00,
2013-10-19 09:40:00,47.0,36.6,30.17,SW,236,9.2,10.1,67,0.00,,,0.08,VWS V13.01,2013-10-19 14:40:00,
2013-10-19 09:45:00,47.0,37.0,30.17,WSW,239,4.9,6.3,68,0.00,,,0.08,VWS V13.01,2013-10-19 14:45:00,
2013-10-19 09:49:00,47.3,37.3,30.17,WSW,239,4.9,5.8,68,0.00,,,0.08,VWS V13.01,2013-10-19 14:49:00,
2013-10-19 09:54:00,47.5,37.1,30.17,WSW,254,5.4,6.7,67,0.00,,,0.08,VWS V13.01,2013-10-19 14:54:00,
2013-10-19 09:59:00,47.5,37.1,30.17,West,260,7.2,7.6,67,0.00,,,0.08,VWS V13.01,2013-10-19 14:59:00,
2013-10-19 10:04:00,47.7,37.3,30.17,West,269,3.6,5.4,67,0.00,,,0.08,VWS V13.01,2013-10-19 15:04:00,
2013-10-19 10:09:00,48.2,38.9,30.17,SW,233,5.8,5.8,70,0.00,,,0.08,VWS V13.01,2013-10-19 15:09:00,
2013-10-19 10:14:00,48.2,38.2,30.17,WSW,247,5.4,5.4,68,0.00,,,0.08,VWS V13.01,2013-10-19 15:14:00,
2013-10-19 10:19:00,48.4,38.4,30.17,West,275,6.3,6.3,68,0.00,,,0.08,VWS V13.01,2013-10-19 15:19:00,
2013-10-19 10:24:00,48.6,37.8,30.17,SW,232,4.0,6.3,66,0.00,,,0.08,VWS V13.01,2013-10-19 15:24:00,
2013-10-19 10:29:00,48.6,38.2,30.17,WSW,238,4.0,5.8,67,0.00,,,0.08,VWS V13.01,2013-10-19 15:29:00,
2013-10-19 10:34:00,49.1,39.0,30.17,SW,222,3.6,4.9,68,0.00,,,0.08,VWS V13.01,2013-10-19 15:34:00,
2013-10-19 10:39:00,49.7,38.8,30.17,South,189,3.6,6.3,66,0.00,,,0.08,VWS V13.01,2013-10-19 15:39:00,
2013-10-19 10:44:00,49.5,38.2,30.17,WSW,240,4.0,8.1,65,0.00,,,0.08,VWS V13.01,2013-10-19 15:44:00,
2013-10-19 10:49:00,49.3,38.1,30.17,WSW,240,3.6,8.7,65,0.00,,,0.08,VWS V13.01,2013-10-19 15:49:00,
2013-10-19 10:54:00,49.5,38.2,30.17,SW,217,2.7,3.1,65,0.00,,,0.08,VWS V13.01,2013-10-19 15:54:00,
2013-10-19 10:59:00,49.7,38.4,30.17,WNW,287,5.4,6.3,65,0.00,,,0.08,VWS V13.01,2013-10-19 15:59:00,
2013-10-19 11:04:00,50.4,39.5,30.17,WSW,247,4.0,6.3,66,0.00,,,0.08,VWS V13.01,2013-10-19 16:04:00,
2013-10-19 11:09:00,50.4,38.7,30.17,SW,223,5.4,5.4,64,0.00,,,0.08,VWS V13.01,2013-10-19 16:09:00,
2013-10-19 11:14:00,50.4,39.1,30.17,SSW,194,6.3,7.6,65,0.00,,,0.08,VWS V13.01,2013-10-19 16:14:00,
2013-10-19 11:19:00,50.6,39.3,30.17,SW,228,8.1,8.1,65,0.00,,,0.08,VWS V13.01,2013-10-19 16:19:00,
2013-10-19 11:24:00,50.9,39.6,30.17,SW,221,5.4,6.3,65,0.00,,,0.08,VWS V13.01,2013-10-19 16:24:00,
2013-10-19 11:29:00,51.1,39.8,30.17,SSW,213,2.7,4.9,65,0.00,,,0.08,VWS V13.01,2013-10-19 16:29:00,
2013-10-19 11:34:00,51.7,39.9,30.17,WSW,238,3.6,6.3,64,0.00,,,0.08,VWS V13.01,2013-10-19 16:34:00,
2013-10-19 11:39:00,51.8,40.1,30.17,WSW,248,8.3,8.3,64,0.00,,,0.08,VWS V13.01,2013-10-19 16:39:00,
2013-10-19 11:44:00,52.0,40.6,30.17,SW,216,5.8,6.3,65,0.00,,,0.08,VWS V13.01,2013-10-19 16:44:00,
2013-10-19 11:49:00,52.2,40.8,30.17,WSW,247,6.3,6.3,65,0.00,,,0.08,VWS V13.01,2013-10-19 16:49:00,
2013-10-19 11:54:00,52.4,40.6,30.17,SSE,167,8.1,8.1,64,0.00,,,0.08,VWS V13.01,2013-10-19 16:54:00,
2013-10-19 11:59:00,52.7,41.3,30.17,SW,219,8.1,8.1,65,0.00,,,0.08,VWS V13.01,2013-10-19 16:59:00,
2013-10-19 12:04:00,52.9,41.1,30.17,South,186,5.8,5.8,64,0.00,,,0.08,VWS V13.01,2013-10-19 17:04:00,
2013-10-19 12:09:00,52.9,41.5,30.17,SSW,192,3.6,4.9,65,0.00,,,0.08,VWS V13.01,2013-10-19 17:09:00,
2013-10-19 12:14:00,53.3,41.4,30.17,South,181,5.4,7.6,64,0.00,,,0.08,VWS V13.01,2013-10-19 17:14:00,
2013-10-19 12:19:00,53.5,41.6,30.17,SSW,211,4.9,8.3,64,0.00,,,0.08,VWS V13.01,2013-10-19 17:19:00,
2013-10-19 12:24:00,53.3,41.4,30.17,SSW,192,4.0,6.3,64,0.00,,,0.08,VWS V13.01,2013-10-19 17:24:00,
2013-10-19 12:29:00,53.6,41.8,30.17,SW,230,5.4,8.7,64,0.00,,,0.08,VWS V13.01,2013-10-19 17:29:00,
2013-10-19 12:34:00,54.0,42.1,30.17,WSW,251,8.1,10.1,64,0.00,,,0.08,VWS V13.01,2013-10-19 17:34:00,
2013-10-19 12:39:00,54.0,41.7,30.17,WSW,242,8.1,10.1,63,0.00,,,0.08,VWS V13.01,2013-10-19 17:39:00,
2013-10-19 12:44:00,53.8,41.5,30.14,SW,219,7.6,7.6,63,0.00,,,0.08,VWS V13.01,2013-10-19 17:44:00,
2013-10-19 12:49:00,54.2,41.9,30.14,South,191,3.6,3.6,63,0.00,,,0.08,VWS V13.01,2013-10-19 17:49:00,
2013-10-19 12:54:00,54.5,41.8,30.14,WSW,246,7.6,8.7,62,0.00,,,0.08,VWS V13.01,2013-10-19 17:54:00,
2013-10-19 12:59:00,54.5,41.4,30.14,SSW,210,4.9,4.9,61,0.00,,,0.08,VWS V13.01,2013-10-19 17:59:00,
2013-10-19 13:04:00,54.7,41.5,30.14,SSW,211,5.4,7.6,61,0.00,,,0.08,VWS V13.01,2013-10-19 18:04:00,
2013-10-19 13:09:00,55.3,41.6,30.14,WSW,241,10.5,12.3,60,0.00,,,0.08,VWS V13.01,2013-10-19 18:09:00,
2013-10-19 13:14:00,55.3,41.6,30.14,WSW,247,11.0,11.0,60,0.00,,,0.08,VWS V13.01,2013-10-19 18:14:00,
2013-10-19 13:19:00,55.1,41.0,30.14,SSW,198,8.1,8.1,59,0.00,,,0.08,VWS V13.01,2013-10-19 18:19:00,
2013-10-19 13:24:00,55.4,41.4,30.14,WSW,246,11.0,11.0,59,0.00,,,0.08,VWS V13.01,2013-10-19 18:24:00,
2013-10-19 13:29:00,55.6,41.1,30.14,SW,226,4.0,5.8,58,0.00,,,0.08,VWS V13.01,2013-10-19 18:29:00,
2013-10-19 13:34:00,56.0,41.4,30.14,SW,222,3.1,4.0,58,0.00,,,0.08,VWS V13.01,2013-10-19 18:34:00,
2013-10-19 13:39:00,56.2,41.6,30.14,SW,225,5.8,7.2,58,0.00,,,0.08,VWS V13.01,2013-10-19 18:39:00,
2013-10-19 13:44:00,56.3,41.8,30.11,WSW,246,7.6,7.6,58,0.00,,,0.08,VWS V13.01,2013-10-19 18:44:00,
2013-10-19 13:49:00,56.3,42.2,30.11,SW,234,6.3,6.3,59,0.00,,,0.08,VWS V13.01,2013-10-19 18:49:00,
2013-10-19 13:54:00,56.7,42.1,30.11,SW,224,4.9,7.6,58,0.00,,,0.08,VWS V13.01,2013-10-19 18:54:00,
2013-10-19 13:59:00,56.9,42.3,30.11,South,186,3.1,4.0,58,0.00,,,0.08,VWS V13.01,2013-10-19 18:59:00,
2013-10-19 14:04:00,57.1,42.0,30.11,West,266,6.3,7.6,57,0.00,,,0.08,VWS V13.01,2013-10-19 19:04:00,
2013-10-19 14:09:00,57.1,42.0,30.11,SW,228,3.1,6.3,57,0.00,,,0.08,VWS V13.01,2013-10-19 19:09:00,
2013-10-19 14:14:00,57.2,42.2,30.11,SSW,194,7.6,8.7,57,0.00,,,0.08,VWS V13.01,2013-10-19 19:14:00,
2013-10-19 14:19:00,57.4,41.9,30.11,SW,230,4.0,10.5,56,0.00,,,0.08,VWS V13.01,2013-10-19 19:19:00,
2013-10-19 14:24:00,57.4,42.3,30.11,SW,235,3.6,6.3,57,0.00,,,0.08,VWS V13.01,2013-10-19 19:24:00,
2013-10-19 14:29:00,58.0,42.4,30.11,SW,223,5.4,5.8,56,0.00,,,0.08,VWS V13.01,2013-10-19 19:29:00,
2013-10-19 14:34:00,58.1,42.5,30.11,West,270,5.8,8.7,56,0.00,,,0.08,VWS V13.01,2013-10-19 19:34:00,
2013-10-19 14:39:00,58.3,42.7,30.11,WSW,248,5.8,5.8,56,0.00,,,0.08,VWS V13.01,2013-10-19 19:39:00,
2013-10-19 14:44:00,58.3,42.7,30.11,West,260,5.8,5.8,56,0.00,,,0.08,VWS V13.01,2013-10-19 19:44:00,
2013-10-19 14:49:00,58.7,42.6,30.11,SW,235,6.7,8.1,55,0.00,,,0.08,VWS V13.01,2013-10-19 19:49:00,
2013-10-19 14:54:00,58.7,42.6,30.11,WSW,239,5.8,6.3,55,0.00,,,0.08,VWS V13.01,2013-10-19 19:54:00,
2013-10-19 14:59:00,58.9,42.7,30.09,SSW,208,6.3,6.3,55,0.00,,,0.08,VWS V13.01,2013-10-19 19:59:00,
2013-10-19 15:04:00,59.0,42.9,30.09,WSW,248,7.6,8.7,55,0.00,,,0.08,VWS V13.01,2013-10-19 20:04:00,
2013-10-19 15:09:00,59.0,42.9,30.09,SW,231,8.3,8.3,55,0.00,,,0.08,VWS V13.01,2013-10-19 20:09:00,
2013-10-19 15:14:00,59.0,42.9,30.09,SW,219,3.6,4.0,55,0.00,,,0.08,VWS V13.01,2013-10-19 20:14:00,
2013-10-19 15:19:00,59.2,43.1,30.09,WSW,243,5.8,8.3,55,0.00,,,0.08,VWS V13.01,2013-10-19 20:19:00,
2013-10-19 15:24:00,59.2,43.1,30.09,SW,232,11.0,11.0,55,0.00,,,0.08,VWS V13.01,2013-10-19 20:24:00,
2013-10-19 15:29:00,59.2,42.6,30.09,SW,223,8.1,8.3,54,0.00,,,0.08,VWS V13.01,2013-10-19 20:29:00,
2013-10-19 15:34:00,59.2,43.1,30.09,SSW,207,6.3,6.3,55,0.00,,,0.08,VWS V13.01,2013-10-19 20:34:00,
2013-10-19 15:39:00,59.6,43.4,30.09,WNW,285,5.4,8.1,55,0.00,,,0.08,VWS V13.01,2013-10-19 20:39:00,
2013-10-19 15:44:00,59.8,43.1,30.09,SSW,212,8.1,8.1,54,0.00,,,0.08,VWS V13.01,2013-10-19 20:44:00,
2013-10-19 15:49:00,59.6,42.9,30.09,SW,233,6.3,6.3,54,0.00,,,0.08,VWS V13.01,2013-10-19 20:49:00,
2013-10-19 15:54:00,59.6,42.9,30.09,SW,225,5.4,5.8,54,0.00,,,0.08,VWS V13.01,2013-10-19 20:54:00,
2013-10-19 15:59:00,59.6,42.9,30.09,SW,231,5.4,7.6,54,0.00,,,0.08,VWS V13.01,2013-10-19 20:59:00,
2013-10-19 16:04:00,59.6,42.9,30.09,South,175,6.7,6.7,54,0.00,,,0.08,VWS V13.01,2013-10-19 21:04:00,
2013-10-19 16:09:00,59.8,43.6,30.09,WSW,252,5.4,5.4,55,0.00,,,0.08,VWS V13.01,2013-10-19 21:09:00,
2013-10-19 16:14:00,59.9,43.3,30.09,South,181,8.3,8.3,54,0.00,,,0.08,VWS V13.01,2013-10-19 21:14:00,
2013-10-19 16:19:00,59.8,43.1,30.09,SW,227,5.8,6.3,54,0.00,,,0.08,VWS V13.01,2013-10-19 21:19:00,
2013-10-19 16:24:00,59.9,43.3,30.09,SW,222,4.0,6.3,54,0.00,,,0.08,VWS V13.01,2013-10-19 21:24:00,
2013-10-19 16:29:00,59.9,43.8,30.09,SW,220,4.0,4.0,55,0.00,,,0.08,VWS V13.01,2013-10-19 21:29:00,
2013-10-19 16:33:00,59.9,43.3,30.09,SSW,197,3.1,5.8,54,0.00,,,0.08,VWS V13.01,2013-10-19 21:33:00,
2013-10-19 16:38:00,59.9,42.8,30.09,West,271,5.4,5.4,53,0.00,,,0.08,VWS V13.01,2013-10-19 21:38:00,
2013-10-19 16:43:00,59.8,43.1,30.09,SW,227,4.0,5.4,54,0.00,,,0.08,VWS V13.01,2013-10-19 21:43:00,
2013-10-19 16:48:00,59.9,43.3,30.09,SW,222,3.6,3.6,54,0.00,,,0.08,VWS V13.01,2013-10-19 21:48:00,
2013-10-19 16:53:00,59.9,43.3,30.09,WSW,240,7.6,11.0,54,0.00,,,0.08,VWS V13.01,2013-10-19 21:53:00,
2013-10-19 16:58:00,59.6,42.9,30.09,SSW,192,6.3,6.3,54,0.00,,,0.08,VWS V13.01,2013-10-19 21:58:00,
2013-10-19 17:03:00,59.4,42.8,30.09,WSW,255,7.6,7.6,54,0.00,,,0.08,VWS V13.01,2013-10-19 22:03:00,
2013-10-19 17:08:00,59.2,42.6,30.09,SW,233,4.0,5.4,54,0.00,,,0.08,VWS V13.01,2013-10-19 22:08:00,
2013-10-19 17:13:00,59.0,42.9,30.09,WSW,239,4.9,8.1,55,0.00,,,0.08,VWS V13.01,2013-10-19 22:13:00,
2013-10-19 17:18:00,59.0,42.4,30.09,SW,233,2.7,6.3,54,0.00,,,0.08,VWS V13.01,2013-10-19 22:18:00,
2013-10-19 17:23:00,58.9,42.7,30.09,WSW,239,3.6,5.8,55,0.00,,,0.08,VWS V13.01,2013-10-19 22:23:00,
2013-10-19 17:28:00,58.7,42.6,30.09,SSE,147,3.6,4.0,55,0.00,,,0.08,VWS V13.01,2013-10-19 22:28:00,
2013-10-19 17:33:00,58.7,42.6,30.09,SW,229,8.1,8.1,55,0.00,,,0.08,VWS V13.01,2013-10-19 22:33:00,
2013-10-19 17:38:00,58.7,42.6,30.09,SSW,209,5.4,5.4,55,0.00,,,0.08,VWS V13.01,2013-10-19 22:38:00,
2013-10-19 17:43:00,58.5,42.4,30.09,SW,216,3.1,5.4,55,0.00,,,0.08,VWS V13.01,2013-10-19 22:43:00,
2013-10-19 17:48:00,58.5,42.4,30.09,South,177,3.6,4.0,55,0.00,,,0.08,VWS V13.01,2013-10-19 22:48:00,
2013-10-19 17:53:00,58.3,42.2,30.09,WSW,239,5.4,5.4,55,0.00,,,0.08,VWS V13.01,2013-10-19 22:53:00,
2013-10-19 17:58:00,58.1,42.1,30.09,South,186,3.1,3.1,55,0.00,,,0.08,VWS V13.01,2013-10-19 22:58:00,
2013-10-19 18:03:00,57.8,42.2,30.09,SW,214,3.1,3.6,56,0.00,,,0.08,VWS V13.01,2013-10-19 23:03:00,
2013-10-19 18:08:00,57.6,42.0,30.09,SSW,204,3.6,4.0,56,0.00,,,0.08,VWS V13.01,2013-10-19 23:08:00,
2013-10-19 18:13:00,57.4,41.9,30.09,South,189,2.2,2.7,56,0.00,,,0.08,VWS V13.01,2013-10-19 23:13:00,
2013-10-19 18:18:00,57.2,42.2,30.09,SW,235,0.0,0.0,57,0.00,,,0.08,VWS V13.01,2013-10-19 23:18:00,
2013-10-19 18:23:00,56.9,41.8,30.09,SSW,198,0.0,0.0,57,0.00,,,0.08,VWS V13.01,2013-10-19 23:23:00,
2013-10-19 18:28:00,56.3,41.8,30.09,SW,233,0.0,0.0,58,0.00,,,0.08,VWS V13.01,2013-10-19 23:28:00,
2013-10-19 18:33:00,55.8,41.3,30.09,SW,233,0.0,0.0,58,0.00,,,0.08,VWS V13.01,2013-10-19 23:33:00,
2013-10-19 18:38:00,55.1,41.5,30.09,SW,233,0.0,0.0,60,0.00,,,0.08,VWS V13.01,2013-10-19 23:38:00,
2013-10-19 18:43:00,54.2,41.9,30.09,SW,233,0.0,0.0,63,0.00,,,0.08,VWS V13.01,2013-10-19 23:43:00,
2013-10-19 18:48:00,53.6,41.4,30.09,SW,233,0.0,0.0,63,0.00,,,0.08,VWS V13.01,2013-10-19 23:48:00,
2013-10-19 18:53:00,53.1,41.3,30.09,SW,233,0.0,0.0,64,0.00,,,0.08,VWS V13.01,2013-10-19 23:53:00,
2013-10-19 18:58:00,52.6,41.5,30.09,SW,233,0.0,0.0,66,0.00,,,0.08,VWS V13.01,2013-10-19 23:58:00,
2013-10-19 19:03:00,52.4,41.8,30.09,SW,233,0.0,0.0,67,0.00,,,0.08,VWS V13.01,2013-10-20 00:03:00,
2013-10-19 19:08:00,52.0,41.4,30.09,SW,233,0.0,0.0,67,0.00,,,0.08,VWS V13.01,2013-10-20 00:08:00,
2013-10-19 19:13:00,51.7,41.1,30.09,SW,233,0.0,0.0,67,0.00,,,0.08,VWS V13.01,2013-10-20 00:13:00,
2013-10-19 19:18:00,50.8,41.0,30.09,SW,233,0.0,0.0,69,0.00,,,0.08,VWS V13.01,2013-10-20 00:18:00,
2013-10-19 19:23:00,50.2,41.9,30.09,SW,233,0.0,0.0,73,0.00,,,0.08,VWS V13.01,2013-10-20 00:23:00,
2013-10-19 19:28:00,49.7,42.1,30.09,SW,233,0.0,0.0,75,0.00,,,0.08,VWS V13.01,2013-10-20 00:28:00,
2013-10-19 19:33:00,49.5,42.3,30.09,SW,233,0.0,0.0,76,0.00,,,0.08,VWS V13.01,2013-10-20 00:33:00,
2013-10-19 19:38:00,49.3,42.4,30.09,WSW,237,0.0,0.0,77,0.00,,,0.08,VWS V13.01,2013-10-20 00:38:00,
2013-10-19 19:43:00,49.1,42.2,30.09,WSW,237,0.0,0.0,77,0.00,,,0.08,VWS V13.01,2013-10-20 00:43:00,
2013-10-19 19:48:00,49.1,42.2,30.09,WSW,237,0.0,0.0,77,0.00,,,0.08,VWS V13.01,2013-10-20 00:48:00,
2013-10-19 19:53:00,49.0,42.1,30.09,WSW,237,0.0,0.0,77,0.00,,,0.08,VWS V13.01,2013-10-20 00:53:00,
2013-10-19 19:58:00,48.4,41.5,30.09,WSW,237,0.0,0.0,77,0.00,,,0.08,VWS V13.01,2013-10-20 00:58:00,
2013-10-19 20:03:00,47.7,40.8,30.09,WSW,237,0.0,0.0,77,0.00,,,0.08,VWS V13.01,2013-10-20 01:03:00,
2013-10-19 20:08:00,47.0,40.5,30.09,WSW,237,0.0,0.0,78,0.00,,,0.08,VWS V13.01,2013-10-20 01:08:00,
2013-10-19 20:13:00,46.8,42.8,30.09,WSW,237,0.0,0.0,86,0.00,,,0.08,VWS V13.01,2013-10-20 01:13:00,
2013-10-19 20:18:00,46.6,43.6,30.09,WSW,237,0.0,0.0,89,0.00,,,0.08,VWS V13.01,2013-10-20 01:18:00,
2013-10-19 20:23:00,46.4,43.4,30.09,WSW,237,0.0,0.0,89,0.00,,,0.08,VWS V13.01,2013-10-20 01:23:00,
2013-10-19 20:28:00,46.4,43.4,30.09,WSW,237,0.0,0.0,89,0.00,,,0.08,VWS V13.01,2013-10-20 01:28:00,
2013-10-19 20:33:00,46.3,42.9,30.09,WSW,237,0.0,0.0,88,0.00,,,0.08,VWS V13.01,2013-10-20 01:33:00,
2013-10-19 20:38:00,46.3,42.9,30.09,WSW,237,0.0,0.0,88,0.00,,,0.08,VWS V13.01,2013-10-20 01:38:00,
2013-10-19 20:43:00,46.1,42.7,30.09,WSW,237,0.0,0.0,88,0.00,,,0.08,VWS V13.01,2013-10-20 01:43:00,
2013-10-19 20:48:00,45.9,42.5,30.09,WSW,237,0.0,0.0,88,0.00,,,0.08,VWS V13.01,2013-10-20 01:48:00,
2013-10-19 20:53:00,45.4,42.3,30.09,WSW,237,0.0,0.0,89,0.00,,,0.08,VWS V13.01,2013-10-20 01:53:00,
2013-10-19 20:58:00,45.2,42.4,30.09,WSW,237,0.0,0.0,90,0.00,,,0.08,VWS V13.01,2013-10-20 01:58:00,
2013-10-19 21:03:00,45.0,42.5,30.09,WSW,237,0.0,0.0,91,0.00,,,0.08,VWS V13.01,2013-10-20 02:03:00,
2013-10-19 21:08:00,44.8,42.4,30.09,WSW,237,0.0,0.0,91,0.00,,,0.08,VWS V13.01,2013-10-20 02:08:00,
2013-10-19 21:13:00,44.6,41.9,30.11,WSW,237,0.0,0.0,90,0.00,,,0.08,VWS V13.01,2013-10-20 02:13:00,
2013-10-19 21:18:00,44.5,42.0,30.11,WSW,237,0.0,0.0,91,0.00,,,0.08,VWS V13.01,2013-10-20 02:18:00,
2013-10-19 21:23:00,44.3,42.4,30.11,WSW,237,0.0,0.0,93,0.00,,,0.08,VWS V13.01,2013-10-20 02:23:00,
2013-10-19 21:28:00,44.3,42.7,30.11,WSW,237,0.0,0.0,94,0.00,,,0.08,VWS V13.01,2013-10-20 02:28:00,
2013-10-19 21:33:00,44.1,42.8,30.11,WSW,237,0.0,0.0,95,0.00,,,0.08,VWS V13.01,2013-10-20 02:33:00,
2013-10-19 21:38:00,43.9,43.1,30.11,WSW,246,0.0,0.0,97,0.00,,,0.08,VWS V13.01,2013-10-20 02:38:00,
2013-10-19 21:43:00,43.7,43.2,30.09,WSW,246,0.0,0.0,98,0.00,,,0.08,VWS V13.01,2013-10-20 02:43:00,
2013-10-19 21:48:00,43.6,42.8,30.09,WSW,246,0.0,0.0,97,0.00,,,0.08,VWS V13.01,2013-10-20 02:48:00,
2013-10-19 21:53:00,43.2,42.7,30.09,WSW,247,0.0,0.0,98,0.00,,,0.08,VWS V13.01,2013-10-20 02:53:00,
2013-10-19 21:58:00,42.8,42.3,30.09,WSW,247,0.0,0.0,98,0.00,,,0.08,VWS V13.01,2013-10-20 02:58:00,
2013-10-19 22:03:00,42.7,42.1,30.09,WSW,247,0.0,0.0,98,0.00,,,0.08,VWS V13.01,2013-10-20 03:03:00,
2013-10-19 22:08:00,42.5,42.2,30.09,WSW,247,0.0,0.0,99,0.00,,,0.08,VWS V13.01,2013-10-20 03:08:00,
2013-10-19 22:13:00,42.5,42.2,30.09,WSW,247,0.0,0.0,99,0.00,,,0.08,VWS V13.01,2013-10-20 03:13:00,
2013-10-19 22:18:00,42.5,42.2,30.09,WSW,247,0.0,0.0,99,0.00,,,0.08,VWS V13.01,2013-10-20 03:18:00,
2013-10-19 22:23:00,42.5,42.5,30.09,WNW,285,0.0,0.0,100,0.00,,,0.08,VWS V13.01,2013-10-20 03:23:00,
2013-10-19 22:28:00,42.5,42.5,30.11,WNW,285,0.0,0.0,100,0.00,,,0.08,VWS V13.01,2013-10-20 03:28:00,
2013-10-19 22:33:00,42.3,42.3,30.11,WNW,285,0.0,0.0,100,0.00,,,0.08,VWS V13.01,2013-10-20 03:33:00,
2013-10-19 22:38:00,42.3,42.3,30.11,WNW,285,0.0,0.0,100,0.00,,,0.08,VWS V13.01,2013-10-20 03:38:00,
2013-10-19 22:43:00,42.3,42.3,30.11,WNW,285,0.0,0.0,100,0.00,,,0.08,VWS V13.01,2013-10-20 03:43:00,
2013-10-19 22:48:00,41.9,41.9,30.11,WNW,285,0.0,0.0,100,0.00,,,0.08,VWS V13.01,2013-10-20 03:48:00,
2013-10-19 22:53:00,41.8,41.8,30.11,WNW,285,0.0,0.0,100,0.00,,,0.08,VWS V13.01,2013-10-20 03:53:00,
2013-10-19 22:58:00,41.6,41.6,30.11,WNW,285,0.0,0.0,100,0.00,,,0.08,VWS V13.01,2013-10-20 03:58:00,
2013-10-19 23:01:00,41.6,41.6,30.11,WNW,285,0.0,0.0,100,0.00,,,0.08,VWS V13.01,2013-10-20 04:01:00,
2013-10-19 23:06:00,41.4,41.4,30.11,WNW,285,0.0,0.0,100,0.00,,,0.08,VWS V13.01,2013-10-20 04:06:00,
2013-10-19 23:11:00,41.2,41.2,30.11,WNW,285,0.0,0.0,100,0.00,,,0.08,VWS V13.01,2013-10-20 04:11:00,
2013-10-19 23:16:00,41.4,41.4,30.11,WNW,285,0.0,0.0,100,0.00,,,0.08,VWS V13.01,2013-10-20 04:16:00,
2013-10-19 23:21:00,41.4,41.4,30.11,NW,305,0.0,0.0,100,0.00,,,0.08,VWS V13.01,2013-10-20 04:21:00,
2013-10-19 23:26:00,41.4,41.4,30.11,NW,314,0.0,0.0,100,0.00,,,0.08,VWS V13.01,2013-10-20 04:26:00,
2013-10-19 23:31:00,41.2,41.2,30.11,NW,314,0.0,0.0,100,0.00,,,0.08,VWS V13.01,2013-10-20 04:31:00,
2013-10-19 23:36:00,40.9,40.9,30.11,NW,314,0.0,0.0,100,0.00,,,0.08,VWS V13.01,2013-10-20 04:36:00,
2013-10-19 23:41:00,40.9,40.9,30.11,NW,314,0.0,0.0,100,0.00,,,0.08,VWS V13.01,2013-10-20 04:41:00,
2013-10-19 23:46:00,40.9,40.9,30.11,NW,314,0.0,0.0,100,0.00,,,0.08,VWS V13.01,2013-10-20 04:46:00,
2013-10-19 23:51:00,40.7,40.7,30.11,NW,314,0.0,0.0,100,0.00,,,0.08,VWS V13.01,2013-10-20 04:51:00,
2013-10-19 23:56:00,40.7,40.7,30.11,NW,314,0.0,0.0,100,0.00,,,0.08,VWS V13.01,2013-10-20 04:56:00,